Time;durP1;ratioP1;P1;durP2;ratioP2;P2;SDS_P1;SDS_P2;PMS_P1;PMS_P2;Temp;Humidity;BMP_temperature;BMP_pressure;BME280_temperature;BME280_humidity;BME280_pressure;Samples;Min_cycle;Max_cycle;Signal;HPM_P1;HPM_P2
2022/03/08 00:00:33;;;;;;;7.97;4.80;;;;;;;6.46;39.35;102289.59;5092994;28;20131;-64
2022/03/08 00:03:00;;;;;;;6.13;4.90;;;;;;;6.44;39.43;102285.22;5093158;28;20044;-65
2022/03/08 00:05:27;;;;;;;8.27;5.18;;;;;;;6.42;39.45;102295.09;5092977;28;20086;-65
2022/03/08 00:07:55;;;;;;;6.32;5.20;;;;;;;6.41;39.47;102280.00;5092849;28;20055;-65
2022/03/08 00:10:23;;;;;;;6.63;5.32;;;;;;;6.38;39.45;102283.63;5092865;28;20093;-65
2022/03/08 00:12:50;;;;;;;8.68;5.35;;;;;;;6.37;39.52;102287.22;5092988;28;20055;-64
2022/03/08 00:15:21;;;;;;;9.13;5.00;;;;;;;6.38;39.45;102273.81;5093201;28;20048;-65
2022/03/08 00:17:48;;;;;;;6.50;4.85;;;;;;;6.41;39.42;102274.66;5092841;28;20051;-64
2022/03/08 00:20:15;;;;;;;6.13;4.65;;;;;;;6.44;39.51;102275.44;5093203;28;20114;-65
2022/03/08 00:22:42;;;;;;;7.35;4.95;;;;;;;6.48;39.43;102268.19;5093068;28;20089;-64
2022/03/08 00:25:13;;;;;;;5.72;4.53;;;;;;;6.51;39.38;102268.97;5091827;28;20052;-64
2022/03/08 00:27:46;;;;;;;8.45;5.07;;;;;;;6.54;39.01;102268.88;5092846;28;20513;-65
2022/03/08 00:30:16;;;;;;;5.70;4.80;;;;;;;6.57;39.32;102274.13;5091093;28;20048;-64
2022/03/08 00:32:43;;;;;;;5.95;4.82;;;;;;;6.59;39.42;102274.94;5091927;28;20481;-64
2022/03/08 00:35:10;;;;;;;5.95;4.60;;;;;;;6.61;39.41;102277.56;5093169;28;20450;-65
2022/03/08 00:37:38;;;;;;;9.35;4.95;;;;;;;6.60;39.33;102276.69;5092995;28;20130;-65
2022/03/08 00:40:06;;;;;;;7.45;4.72;;;;;;;6.59;39.21;102285.63;5093333;28;20040;-65
2022/03/08 00:42:32;;;;;;;7.35;4.80;;;;;;;6.59;39.45;102284.75;5093364;28;20452;-64
2022/03/08 00:44:59;;;;;;;5.80;4.60;;;;;;;6.58;39.28;102283.00;5091075;28;20494;-65
2022/03/08 00:47:26;;;;;;;8.18;5.00;;;;;;;6.56;39.12;102283.06;5090546;28;20097;-65
2022/03/08 00:49:53;;;;;;;7.03;5.10;;;;;;;6.55;39.25;102283.09;5092138;28;20446;-65
2022/03/08 00:52:20;;;;;;;7.20;4.95;;;;;;;6.52;39.24;102278.72;5092081;28;20068;-65
2022/03/08 00:54:50;;;;;;;7.35;5.00;;;;;;;6.50;39.27;102282.38;5092498;28;20126;-64
2022/03/08 00:57:17;;;;;;;7.80;5.22;;;;;;;6.47;39.36;102286.00;5090544;28;20138;-64
2022/03/08 00:59:44;;;;;;;6.70;5.25;;;;;;;6.43;39.23;102280.81;5092285;28;20131;-64
2022/03/08 01:02:10;;;;;;;7.05;4.93;;;;;;;6.38;39.38;102281.84;5092073;28;20034;-64
2022/03/08 01:04:41;;;;;;;8.15;5.10;;;;;;;6.36;39.47;102277.47;5092521;28;20093;-64
2022/03/08 01:07:08;;;;;;;7.00;5.25;;;;;;;6.34;39.28;102280.19;5091898;28;20148;-64
2022/03/08 01:09:35;;;;;;;7.72;5.30;;;;;;;6.32;39.35;102281.16;5091962;28;20414;-64
2022/03/08 01:12:03;;;;;;;6.95;4.60;;;;;;;6.28;39.11;102280.38;5092096;28;20119;-65
2022/03/08 01:14:32;;;;;;;6.47;4.80;;;;;;;6.25;39.51;102264.44;5092100;28;20059;-65
2022/03/08 01:17:03;;;;;;;7.57;4.80;;;;;;;6.26;39.50;102270.66;5090660;28;20044;-65
2022/03/08 01:19:29;;;;;;;6.70;4.97;;;;;;;6.26;39.51;102268.88;5090763;28;20058;-65
2022/03/08 01:21:56;;;;;;;6.25;5.05;;;;;;;6.29;39.32;102265.22;5092320;28;20060;-65
2022/03/08 01:24:24;;;;;;;7.45;4.78;;;;;;;6.30;39.29;102257.19;5092188;28;20461;-64
2022/03/08 01:26:51;;;;;;;6.78;4.60;;;;;;;6.31;39.42;102250.94;5091913;28;20089;-64
2022/03/08 01:29:17;;;;;;;8.73;4.47;;;;;;;6.33;39.34;102249.09;5091978;28;20040;-65
2022/03/08 01:31:44;;;;;;;7.10;5.20;;;;;;;6.34;39.37;102247.28;5091907;28;20036;-65
2022/03/08 01:34:17;;;;;;;8.70;5.05;;;;;;;6.33;39.25;102245.53;5090608;28;20036;-65
2022/03/08 01:36:45;;;;;;;6.30;5.15;;;;;;;6.33;39.31;102248.22;5092108;28;20082;-65
2022/03/08 01:39:11;;;;;;;7.47;4.85;;;;;;;6.34;39.41;102250.84;5091648;28;20055;-65
2022/03/08 01:41:38;;;;;;;5.18;4.15;;;;;;;6.35;39.26;102241.91;5091827;28;20130;-65
2022/03/08 01:44:08;;;;;;;7.47;5.10;;;;;;;6.35;39.32;102233.03;5094250;28;20048;-65
2022/03/08 01:46:36;;;;;;;6.15;5.20;;;;;;;6.33;39.34;102241.06;5094375;28;20074;-64
2022/03/08 01:49:05;;;;;;;7.75;4.95;;;;;;;6.35;39.33;102231.22;5094524;28;20036;-65
2022/03/08 01:51:33;;;;;;;8.25;4.88;;;;;;;6.34;39.35;102226.81;5093941;28;20083;-65
2022/03/08 01:54:05;;;;;;;8.05;4.97;;;;;;;6.35;39.06;102230.34;5096174;28;20453;-65
2022/03/08 01:56:33;;;;;;;7.07;5.00;;;;;;;6.33;39.23;102227.75;5095666;28;20085;-64
2022/03/08 01:59:01;;;;;;;10.32;4.70;;;;;;;6.33;39.20;102222.41;5095478;28;20127;-64
2022/03/08 02:01:27;;;;;;;6.30;5.05;;;;;;;6.32;39.27;102220.66;5094494;28;20040;-64
2022/03/08 02:03:58;;;;;;;6.10;4.75;;;;;;;6.30;39.25;102209.16;5095722;28;20085;-65
2022/03/08 02:06:25;;;;;;;8.43;6.05;;;;;;;6.30;39.21;102210.97;5095594;28;20114;-65
2022/03/08 02:08:52;;;;;;;8.68;4.82;;;;;;;6.29;39.43;102204.75;5095396;28;20036;-64
2022/03/08 02:11:19;;;;;;;6.88;5.10;;;;;;;6.29;39.22;102210.09;5095450;28;20486;-65
2022/03/08 02:13:47;;;;;;;6.97;5.05;;;;;;;6.27;39.23;102197.72;5095526;28;20028;-64
2022/03/08 02:16:14;;;;;;;8.65;5.30;;;;;;;6.24;39.23;102196.00;5094993;28;20044;-64
2022/03/08 02:18:41;;;;;;;8.80;5.35;;;;;;;6.18;39.42;102206.88;5095219;28;20040;-64
2022/03/08 02:21:08;;;;;;;6.35;5.20;;;;;;;6.14;39.53;102201.69;5095360;28;20044;-64
2022/03/08 02:23:37;;;;;;;6.20;5.35;;;;;;;6.08;39.33;102194.75;5095382;28;20060;-65
2022/03/08 02:26:04;;;;;;;6.20;4.85;;;;;;;6.03;39.45;102188.69;5093790;28;20105;-65
2022/03/08 02:28:31;;;;;;;6.40;5.00;;;;;;;5.98;39.67;102186.16;5093731;28;20051;-64
2022/03/08 02:30:58;;;;;;;5.97;4.97;;;;;;;5.95;39.53;102188.03;5095283;28;20051;-64
2022/03/08 02:33:24;;;;;;;7.78;5.20;;;;;;;5.91;39.69;102187.22;5094168;28;20040;-64
2022/03/08 02:35:55;;;;;;;7.95;5.35;;;;;;;5.90;39.57;102189.94;5095255;28;20119;-64
2022/03/08 02:38:23;;;;;;;9.88;5.40;;;;;;;5.86;39.50;102188.25;5095015;28;20044;-64
2022/03/08 02:40:50;;;;;;;7.15;5.25;;;;;;;5.82;39.58;102181.28;5095596;28;20052;-65
2022/03/08 02:43:17;;;;;;;7.10;5.53;;;;;;;5.76;39.79;102182.34;5094743;28;20478;-64
2022/03/08 02:45:44;;;;;;;7.82;5.57;;;;;;;5.73;39.56;102174.44;5095413;28;20072;-64
2022/03/08 02:48:11;;;;;;;5.97;4.90;;;;;;;5.72;39.86;102162.88;5094757;28;20040;-65
2022/03/08 02:50:38;;;;;;;6.07;5.20;;;;;;;5.73;39.64;102159.31;5094885;28;20040;-64
2022/03/08 02:53:06;;;;;;;6.80;5.30;;;;;;;5.77;39.71;102153.88;5094390;28;20068;-65
2022/03/08 02:55:38;;;;;;;7.63;5.35;;;;;;;5.78;39.72;102152.97;5095401;28;20048;-65
2022/03/08 02:58:05;;;;;;;8.95;5.78;;;;;;;5.78;39.80;102158.28;5094737;28;20037;-64
2022/03/08 03:00:34;;;;;;;7.57;5.35;;;;;;;5.75;39.72;102162.81;5094250;28;20070;-65
2022/03/08 03:03:01;;;;;;;7.47;5.32;;;;;;;5.71;39.74;102166.47;5094963;28;20317;-64
2022/03/08 03:05:28;;;;;;;9.15;5.78;;;;;;;5.65;39.92;102153.34;5095199;28;20051;-64
2022/03/08 03:07:55;;;;;;;6.78;5.15;;;;;;;5.59;39.77;102157.97;5094908;28;20054;-65
2022/03/08 03:10:23;;;;;;;9.57;5.25;;;;;;;5.56;39.83;102144.75;5094771;28;20048;-65
2022/03/08 03:12:52;;;;;;;7.72;5.57;;;;;;;5.54;39.87;102144.78;5094760;28;20502;-64
2022/03/08 03:15:21;;;;;;;8.40;5.78;;;;;;;5.51;39.84;102139.53;5095315;28;20054;-65
2022/03/08 03:17:48;;;;;;;8.55;6.00;;;;;;;5.50;39.92;102143.13;5095371;28;20082;-66
2022/03/08 03:20:18;;;;;;;7.10;5.45;;;;;;;5.49;40.12;102143.19;5095051;28;20040;-64
2022/03/08 03:22:46;;;;;;;7.15;5.40;;;;;;;5.48;40.17;102142.31;5094768;28;20405;-65
2022/03/08 03:25:18;;;;;;;7.30;5.88;;;;;;;5.48;40.21;102138.75;5094315;28;20508;-65
2022/03/08 03:27:45;;;;;;;9.55;5.55;;;;;;;5.50;40.04;102144.91;5094839;28;20131;-66
2022/03/08 03:30:14;;;;;;;8.70;5.82;;;;;;;5.50;40.26;102143.13;5091364;28;20072;-65
2022/03/08 03:32:43;;;;;;;8.07;5.22;;;;;;;5.50;40.11;102143.13;5081788;28;20417;-65
2022/03/08 03:35:14;;;;;;;7.30;5.20;;;;;;;5.51;40.29;102138.66;5095241;28;20240;-65
2022/03/08 03:37:41;;;;;;;8.57;5.97;;;;;;;5.51;40.29;102147.53;5094225;28;20060;-65
2022/03/08 03:40:09;;;;;;;7.65;5.32;;;;;;;5.53;40.22;102136.84;5094402;28;20430;-65
2022/03/08 03:42:35;;;;;;;7.22;5.40;;;;;;;5.53;40.33;102143.03;5094531;28;20090;-64
2022/03/08 03:45:05;;;;;;;7.70;5.68;;;;;;;5.53;40.30;102132.38;5095050;28;20062;-65
2022/03/08 03:47:31;;;;;;;7.45;6.25;;;;;;;5.51;40.27;102136.88;5094274;28;20085;-66
2022/03/08 03:49:58;;;;;;;7.40;5.43;;;;;;;5.50;40.19;102136.94;5094467;28;20101;-64
2022/03/08 03:52:25;;;;;;;7.85;5.38;;;;;;;5.48;40.28;102139.63;5094278;28;20056;-65
2022/03/08 03:54:53;;;;;;;7.32;5.75;;;;;;;5.48;39.99;102144.09;5094438;28;20036;-64
2022/03/08 03:57:20;;;;;;;9.65;5.45;;;;;;;5.48;40.40;102134.31;5094290;28;20213;-64
2022/03/08 03:59:46;;;;;;;10.07;6.10;;;;;;;5.49;40.28;102135.19;5093916;28;20123;-64
2022/03/08 04:02:14;;;;;;;6.97;5.47;;;;;;;5.50;40.23;102137.81;5094138;28;20106;-64
2022/03/08 04:04:45;;;;;;;6.25;5.53;;;;;;;5.51;40.38;102138.66;5093698;28;20551;-64
2022/03/08 04:07:11;;;;;;;7.30;5.75;;;;;;;5.51;40.34;102139.53;5093300;28;20565;-65
2022/03/08 04:09:38;;;;;;;7.97;5.78;;;;;;;5.50;40.34;102135.13;5093718;28;20044;-64
2022/03/08 04:12:05;;;;;;;7.85;5.57;;;;;;;5.53;40.30;102134.16;5093823;28;20122;-64
2022/03/08 04:14:33;;;;;;;8.20;5.53;;;;;;;5.53;40.35;102137.72;5092573;28;20491;-64
2022/03/08 04:17:02;;;;;;;8.80;6.10;;;;;;;5.54;40.40;102131.47;5093702;28;20036;-64
2022/03/08 04:19:29;;;;;;;7.18;5.72;;;;;;;5.53;40.49;102136.84;5093895;28;20044;-65
2022/03/08 04:21:55;;;;;;;8.80;6.10;;;;;;;5.50;40.48;102137.81;5093732;28;20055;-65
2022/03/08 04:24:24;;;;;;;9.13;6.13;;;;;;;5.49;40.38;102116.53;5093771;28;20136;-64
2022/03/08 04:26:50;;;;;;;9.23;6.03;;;;;;;5.47;40.52;102121.03;5093683;28;20036;-64
2022/03/08 04:29:17;;;;;;;7.20;5.78;;;;;;;5.43;40.40;102112.25;5093957;28;20063;-64
2022/03/08 04:31:43;;;;;;;8.07;6.00;;;;;;;5.39;40.46;102115.94;5093527;28;20044;-64
2022/03/08 04:34:14;;;;;;;7.85;6.40;;;;;;;5.38;40.34;102115.06;5093581;28;20052;-65
2022/03/08 04:36:41;;;;;;;7.53;5.57;;;;;;;5.35;40.46;102111.59;5092057;28;20131;-64
2022/03/08 04:39:09;;;;;;;10.13;5.45;;;;;;;5.33;40.41;102114.31;5093274;28;20071;-64
2022/03/08 04:41:36;;;;;;;7.28;6.18;;;;;;;5.33;40.63;102116.97;5093332;28;20394;-64
2022/03/08 04:44:04;;;;;;;9.88;6.05;;;;;;;5.34;40.70;102109.88;5092095;28;20046;-64
2022/03/08 04:46:31;;;;;;;9.15;6.05;;;;;;;5.35;40.58;102111.59;5093118;28;20039;-65
2022/03/08 04:48:58;;;;;;;8.30;6.40;;;;;;;5.35;40.61;102117.81;5093503;28;20040;-64
2022/03/08 04:51:25;;;;;;;6.63;5.50;;;;;;;5.32;40.67;102119.69;5093263;28;20074;-64
2022/03/08 04:53:53;;;;;;;7.97;6.75;;;;;;;5.28;40.68;102115.38;5093600;28;20040;-64
2022/03/08 04:56:19;;;;;;;7.25;5.85;;;;;;;5.24;40.36;102119.91;5092732;28;20138;-64
2022/03/08 04:58:46;;;;;;;7.47;5.82;;;;;;;5.21;40.58;102113.81;5092912;28;20040;-64
2022/03/08 05:01:19;;;;;;;8.05;6.03;;;;;;;5.19;40.80;102118.25;5093087;28;20093;-64
2022/03/08 05:03:49;;;;;;;8.38;5.90;;;;;;;5.19;40.72;102115.59;5093088;28;20093;-65
2022/03/08 05:06:16;;;;;;;9.63;6.55;;;;;;;5.17;40.71;102110.31;5092994;28;20064;-65
2022/03/08 05:08:44;;;;;;;8.73;6.03;;;;;;;5.15;40.88;102113.94;5092924;28;20036;-64
2022/03/08 05:11:10;;;;;;;12.25;6.30;;;;;;;5.12;40.72;102114.91;5092924;28;20047;-64
2022/03/08 05:13:39;;;;;;;9.90;6.38;;;;;;;5.09;40.96;102112.31;5092985;28;20115;-65
2022/03/08 05:16:06;;;;;;;6.72;5.85;;;;;;;5.06;40.90;102107.97;5092523;28;20042;-64
2022/03/08 05:18:32;;;;;;;8.27;6.35;;;;;;;5.05;40.87;102108.88;5093090;28;20051;-65
2022/03/08 05:20:59;;;;;;;8.25;6.15;;;;;;;5.03;40.90;102105.38;5093154;28;20062;-64
2022/03/08 05:23:25;;;;;;;8.07;6.50;;;;;;;5.00;41.08;102109.91;5092875;28;20048;-64
2022/03/08 05:25:54;;;;;;;8.70;5.57;;;;;;;4.97;40.98;102102.03;5092558;28;20067;-64
2022/03/08 05:28:21;;;;;;;8.38;6.60;;;;;;;4.96;41.05;102102.94;5092651;28;20044;-64
2022/03/08 05:30:47;;;;;;;8.02;7.03;;;;;;;4.94;41.07;102105.63;5092505;28;20059;-64
2022/03/08 05:33:14;;;;;;;8.57;6.50;;;;;;;4.93;41.31;102098.56;5092643;28;20063;-65
2022/03/08 05:35:41;;;;;;;10.18;6.45;;;;;;;4.93;41.28;102103.03;5091736;28;20066;-64
2022/03/08 05:38:07;;;;;;;8.48;6.45;;;;;;;4.91;41.10;102105.72;5092625;28;20097;-64
2022/03/08 05:40:34;;;;;;;9.35;6.40;;;;;;;4.91;41.27;102104.84;5092549;28;20040;-64
2022/03/08 05:43:01;;;;;;;11.07;6.75;;;;;;;4.87;41.17;102101.41;5091279;28;20048;-64
2022/03/08 05:45:32;;;;;;;7.65;6.20;;;;;;;4.86;41.38;102093.47;5092346;28;20048;-65
2022/03/08 05:47:59;;;;;;;9.02;6.28;;;;;;;4.87;41.46;102095.19;5091882;28;20048;-65
2022/03/08 05:50:25;;;;;;;8.52;6.22;;;;;;;4.87;41.40;102095.19;5091640;28;20110;-64
2022/03/08 05:52:52;;;;;;;9.15;5.90;;;;;;;4.89;41.37;102090.72;5089034;28;20044;-64
2022/03/08 05:55:23;;;;;;;7.68;6.47;;;;;;;4.90;41.37;102093.34;5088958;28;20110;-65
2022/03/08 05:57:49;;;;;;;7.05;5.95;;;;;;;4.93;41.38;102089.72;5091642;28;20502;-64
2022/03/08 06:00:16;;;;;;;8.60;6.80;;;;;;;4.96;41.33;102094.94;5088148;28;20036;-64
2022/03/08 06:02:43;;;;;;;10.60;6.47;;;;;;;4.98;41.45;102093.13;5088412;28;20549;-64
2022/03/08 06:05:10;;;;;;;8.30;5.90;;;;;;;5.00;41.49;102100.16;5090197;28;20093;-64
2022/03/08 06:07:37;;;;;;;10.35;6.03;;;;;;;5.03;41.46;102099.19;5082420;28;20102;-65
2022/03/08 06:10:07;;;;;;;7.93;6.20;;;;;;;5.06;41.56;102099.09;5090619;28;20032;-65
2022/03/08 06:12:35;;;;;;;7.35;5.97;;;;;;;5.08;41.53;102102.59;5082588;28;20101;-65
2022/03/08 06:15:04;;;;;;;8.93;6.15;;;;;;;5.10;41.54;102101.63;5073477;28;20032;-64
2022/03/08 06:17:31;;;;;;;11.50;6.45;;;;;;;5.14;41.56;102118.41;5084523;28;20048;-65
2022/03/08 06:19:57;;;;;;;8.35;5.97;;;;;;;5.15;41.42;102113.94;5087026;28;20049;-64
2022/03/08 06:22:24;;;;;;;9.95;6.07;;;;;;;5.16;41.57;102110.38;5087001;28;20039;-65
2022/03/08 06:24:52;;;;;;;7.38;6.00;;;;;;;5.18;41.59;102119.19;5086427;28;20074;-65
2022/03/08 06:27:18;;;;;;;7.28;6.20;;;;;;;5.21;41.50;102119.13;5082920;28;20032;-65
2022/03/08 06:29:45;;;;;;;8.50;6.38;;;;;;;5.23;41.53;102119.94;5094222;28;20042;-65
2022/03/08 06:32:12;;;;;;;7.55;6.25;;;;;;;5.24;41.34;102122.56;5091952;28;20040;-65
2022/03/08 06:34:40;;;;;;;8.38;6.00;;;;;;;5.28;41.34;102120.69;5087054;28;20123;-65
2022/03/08 06:37:06;;;;;;;10.43;6.70;;;;;;;5.30;41.50;102114.41;5095319;28;20044;-65
2022/03/08 06:39:33;;;;;;;8.00;6.20;;;;;;;5.32;41.80;102115.25;5095292;28;20086;-63
2022/03/08 06:41:59;;;;;;;8.55;6.47;;;;;;;5.34;41.36;102120.53;5081325;28;20398;-65
2022/03/08 06:44:31;;;;;;;10.13;7.57;;;;;;;5.35;41.52;102114.28;5093528;28;20545;-65
2022/03/08 06:46:58;;;;;;;8.75;6.45;;;;;;;5.36;41.53;102111.56;5079770;28;20044;-64
2022/03/08 06:49:25;;;;;;;11.93;6.70;;;;;;;5.39;41.42;102113.25;5085266;28;20044;-65
2022/03/08 06:51:52;;;;;;;9.15;6.50;;;;;;;5.42;41.38;102110.50;5088639;28;20037;-65
2022/03/08 06:54:22;;;;;;;9.45;5.97;;;;;;;5.43;41.48;102107.81;5088685;28;20401;-64
2022/03/08 06:56:49;;;;;;;8.30;6.70;;;;;;;5.47;41.46;102110.38;5090869;28;20048;-65
2022/03/08 06:59:16;;;;;;;8.52;5.93;;;;;;;5.48;41.55;102109.47;5085859;28;20041;-64
2022/03/08 07:01:46;;;;;;;9.15;6.50;;;;;;;5.51;41.42;102112.91;5094408;28;20115;-64
2022/03/08 07:04:16;;;;;;;8.77;6.97;;;;;;;5.55;41.57;102109.22;5090861;28;20516;-64
2022/03/08 07:06:48;;;;;;;10.55;6.75;;;;;;;5.58;41.48;102109.13;5090499;28;20040;-64
2022/03/08 07:09:15;;;;;;;9.38;6.78;;;;;;;5.62;41.53;102105.47;5087409;28;20516;-64
2022/03/08 07:11:42;;;;;;;10.15;6.97;;;;;;;5.67;41.58;102108.84;5085239;28;20058;-64
2022/03/08 07:14:15;;;;;;;8.05;6.22;;;;;;;5.70;41.45;102108.75;5088895;28;20041;-63
2022/03/08 07:16:42;;;;;;;11.13;6.93;;;;;;;5.77;41.49;102114.78;5091357;28;20063;-64
2022/03/08 07:19:09;;;;;;;8.10;6.40;;;;;;;5.85;41.53;102126.06;5090365;28;20037;-65
2022/03/08 07:21:36;;;;;;;9.70;6.53;;;;;;;5.93;41.69;102115.19;5089994;28;20504;-65
2022/03/08 07:24:03;;;;;;;9.57;6.55;;;;;;;6.04;41.72;102118.44;5091604;28;20509;-64
2022/03/08 07:26:29;;;;;;;9.93;7.10;;;;;;;6.16;41.77;102120.69;5092777;28;20492;-64
2022/03/08 07:28:56;;;;;;;8.18;6.13;;;;;;;6.30;41.78;102115.78;5089745;28;20055;-64
2022/03/08 07:31:23;;;;;;;8.90;6.97;;;;;;;6.44;41.72;102112.66;5085332;28;20044;-65
2022/03/08 07:33:52;;;;;;;9.23;6.18;;;;;;;6.61;41.80;102118.28;5090383;28;20089;-66
2022/03/08 07:36:19;;;;;;;8.55;6.32;;;;;;;6.79;41.55;102114.13;5089794;28;20115;-66
2022/03/08 07:38:45;;;;;;;9.15;6.40;;;;;;;6.97;41.39;102115.28;5090209;28;20059;-65
2022/03/08 07:41:12;;;;;;;11.05;6.80;;;;;;;7.14;41.29;102120.00;5088067;28;20389;-67
2022/03/08 07:43:43;;;;;;;8.27;6.22;;;;;;;7.29;41.12;102123.00;5093386;28;20048;-66
2022/03/08 07:46:09;;;;;;;10.98;6.03;;;;;;;7.42;41.10;102125.22;5093098;28;20381;-66
2022/03/08 07:48:37;;;;;;;8.18;6.07;;;;;;;7.57;41.00;102127.34;5091722;28;20040;-66
2022/03/08 07:51:04;;;;;;;10.98;6.35;;;;;;;7.72;41.00;102124.06;5092847;28;20135;-65
2022/03/08 07:53:39;;;;;;;7.65;6.00;;;;;;;7.86;40.95;102126.19;5092658;28;20040;-67
2022/03/08 07:56:05;;;;;;;10.25;6.50;;;;;;;8.02;40.82;102124.66;5092755;28;20059;-66
2022/03/08 07:58:34;;;;;;;8.75;6.65;;;;;;;8.17;40.64;102123.16;5092702;28;20036;-66
2022/03/08 08:01:00;;;;;;;8.82;6.25;;;;;;;8.31;40.44;102119.94;5092737;28;20398;-66
2022/03/08 08:03:28;;;;;;;7.18;6.18;;;;;;;8.46;40.13;102108.63;5092756;28;20119;-66
2022/03/08 08:05:55;;;;;;;7.20;6.05;;;;;;;8.60;40.15;102111.59;5092924;28;20452;-66
2022/03/08 08:08:22;;;;;;;9.63;6.15;;;;;;;8.68;39.95;102117.50;5091579;28;20472;-66
2022/03/08 08:10:49;;;;;;;9.07;6.65;;;;;;;8.79;39.89;102117.03;5092516;28;20079;-68
2022/03/08 08:13:15;;;;;;;8.13;6.53;;;;;;;8.91;39.58;102111.13;5092310;28;20123;-70
2022/03/08 08:15:43;;;;;;;7.57;6.00;;;;;;;8.99;39.54;102108.16;5092318;28;20075;-68
2022/03/08 08:18:16;;;;;;;7.35;5.75;;;;;;;9.07;39.38;102101.50;5092281;28;20044;-67
2022/03/08 08:20:43;;;;;;;7.30;6.03;;;;;;;9.19;39.33;102113.50;5092510;28;20048;-69
2022/03/08 08:23:13;;;;;;;8.27;6.20;;;;;;;9.34;39.15;102111.91;5092847;28;20135;-70
2022/03/08 08:25:40;;;;;;;9.38;6.60;;;;;;;9.43;38.88;102107.00;5092136;28;20098;-69
2022/03/08 08:28:07;;;;;;;8.25;5.88;;;;;;;9.50;38.79;102112.94;5092421;28;20081;-69
2022/03/08 08:30:33;;;;;;;8.27;6.22;;;;;;;9.55;38.48;102110.94;5092017;28;20117;-69
2022/03/08 08:33:00;;;;;;;8.00;6.20;;;;;;;9.63;38.32;102115.94;5090869;28;20126;-69
2022/03/08 08:35:27;;;;;;;7.55;5.68;;;;;;;9.71;38.20;102116.47;5091952;28;20102;-69
2022/03/08 08:37:54;;;;;;;7.72;6.15;;;;;;;9.77;38.21;102111.69;5092259;28;20048;-69
2022/03/08 08:40:20;;;;;;;7.32;5.80;;;;;;;9.86;37.99;102111.25;5092039;28;20072;-67
2022/03/08 08:42:47;;;;;;;6.88;5.90;;;;;;;9.94;37.92;102113.56;5091959;28;20516;-67
2022/03/08 08:45:23;;;;;;;9.65;6.00;;;;;;;10.01;37.77;102125.75;5091710;28;20101;-67
2022/03/08 08:47:49;;;;;;;10.05;6.18;;;;;;;10.09;37.53;102117.31;5091895;28;20135;-68
2022/03/08 08:50:16;;;;;;;7.03;6.07;;;;;;;10.14;37.22;102121.50;5092220;28;20040;-66
2022/03/08 08:52:46;;;;;;;7.28;5.72;;;;;;;10.19;37.05;102122.16;5090298;28;20468;-66
2022/03/08 08:55:14;;;;;;;7.82;5.90;;;;;;;10.29;37.14;102116.38;5092318;28;20047;-67
2022/03/08 08:57:40;;;;;;;7.38;5.53;;;;;;;10.39;37.14;102107.78;5091156;28;20040;-67
2022/03/08 09:00:08;;;;;;;9.18;5.57;;;;;;;10.49;36.79;102101.03;5091992;28;20050;-67
2022/03/08 09:02:35;;;;;;;11.68;6.57;;;;;;;10.59;36.75;102097.88;5092114;28;20089;-68
2022/03/08 09:05:08;;;;;;;8.48;5.80;;;;;;;10.68;36.64;102092.88;5092226;28;20105;-67
2022/03/08 09:07:34;;;;;;;8.98;5.75;;;;;;;10.77;36.46;102091.53;5091603;28;20063;-67
2022/03/08 09:10:01;;;;;;;8.48;5.43;;;;;;;10.84;36.26;102087.59;5091859;28;20075;-68
2022/03/08 09:12:28;;;;;;;7.38;5.20;;;;;;;10.93;36.08;102083.53;5091942;28;20040;-68
2022/03/08 09:15:01;;;;;;;6.05;5.35;;;;;;;11.00;35.80;102084.97;5091703;28;20040;-67
2022/03/08 09:17:29;;;;;;;7.82;5.10;;;;;;;11.07;35.77;102076.47;5090487;28;20059;-67
2022/03/08 09:19:55;;;;;;;6.75;4.75;;;;;;;11.12;35.42;102084.31;5091838;28;20046;-67
2022/03/08 09:22:22;;;;;;;6.60;5.13;;;;;;;11.18;34.89;102073.25;5092073;28;20468;-67
2022/03/08 09:24:53;;;;;;;6.20;4.72;;;;;;;11.21;35.43;102066.84;5092187;28;20040;-67
2022/03/08 09:27:20;;;;;;;9.75;4.85;;;;;;;11.27;35.12;102064.69;5092056;28;20083;-67
2022/03/08 09:29:46;;;;;;;7.32;5.18;;;;;;;11.38;35.00;102067.66;5092009;28;20553;-67
2022/03/08 09:32:14;;;;;;;7.35;5.20;;;;;;;11.48;35.02;102068.00;5092496;28;20131;-67
2022/03/08 09:34:42;;;;;;;5.97;4.93;;;;;;;11.54;34.76;102062.28;5092339;28;20109;-67
2022/03/08 09:37:08;;;;;;;6.70;4.32;;;;;;;11.64;34.57;102051.88;5092368;28;20040;-68
2022/03/08 09:39:36;;;;;;;7.10;4.88;;;;;;;11.70;34.34;102063.16;5092203;28;20097;-68
2022/03/08 09:42:04;;;;;;;6.70;5.13;;;;;;;11.74;34.18;102059.34;5092457;28;20052;-67
2022/03/08 09:44:32;;;;;;;11.57;4.85;;;;;;;11.81;33.91;102054.50;5091543;28;20045;-67
2022/03/08 09:46:59;;;;;;;9.20;4.60;;;;;;;11.86;33.81;102044.34;5090733;28;20040;-67
2022/03/08 09:49:26;;;;;;;7.18;4.85;;;;;;;11.95;34.01;102042.97;5090777;28;20040;-67
2022/03/08 09:51:53;;;;;;;5.78;4.53;;;;;;;12.08;33.84;102047.56;5090831;28;20135;-68
2022/03/08 09:54:21;;;;;;;8.68;4.78;;;;;;;12.20;33.80;102039.72;5090921;28;20071;-67
2022/03/08 09:56:48;;;;;;;7.65;4.78;;;;;;;12.26;33.38;102029.44;5091483;28;20098;-68
2022/03/08 09:59:19;;;;;;;7.28;4.38;;;;;;;12.30;33.04;102036.41;5090936;28;20119;-67
2022/03/08 10:01:47;;;;;;;5.13;4.13;;;;;;;12.35;32.91;102046.91;5090550;28;20075;-68
2022/03/08 10:04:19;;;;;;;6.97;4.75;;;;;;;12.40;32.86;102040.28;5093021;28;20477;-67
2022/03/08 10:07:11;;;;;;;6.00;4.60;;;;;;;12.48;32.74;102030.88;5094932;28;20036;-68
2022/03/08 10:09:38;;;;;;;5.70;4.38;;;;;;;12.53;32.53;102035.00;5083594;28;20453;-68
2022/03/08 10:12:16;;;;;;;8.07;4.97;;;;;;;12.58;32.23;102034.72;5086413;28;20466;-68
2022/03/08 10:14:48;;;;;;;6.68;4.63;;;;;;;12.66;32.12;102025.25;5094844;28;20119;-68
2022/03/08 10:17:40;;;;;;;5.50;3.92;;;;;;;12.68;31.88;102020.63;5094623;28;20052;-68
2022/03/08 10:20:09;;;;;;;5.97;4.50;;;;;;;12.70;31.49;102025.94;5094684;28;20127;-67
2022/03/08 10:22:40;;;;;;;6.10;4.35;;;;;;;12.68;31.56;102020.63;5094513;28;20036;-68
2022/03/08 10:25:17;;;;;;;5.03;3.83;;;;;;;12.67;31.24;102020.72;5094586;28;20433;-67
2022/03/08 10:27:56;;;;;;;5.93;3.28;;;;;;;12.69;31.25;102021.50;5094056;28;20044;-68
2022/03/08 10:30:25;;;;;;;6.50;4.50;;;;;;;12.71;31.35;102016.88;5094374;28;20490;-68
2022/03/08 10:33:07;;;;;;;7.20;4.32;;;;;;;12.72;31.27;102022.19;5094237;28;20574;-67
2022/03/08 10:35:40;;;;;;;5.40;4.30;;;;;;;12.79;31.08;102013.72;5094285;28;20119;-68
2022/03/08 10:38:08;;;;;;;6.13;3.95;;;;;;;12.86;31.14;102015.94;5092560;28;20081;-67
2022/03/08 10:40:36;;;;;;;6.78;4.50;;;;;;;12.99;31.27;102006.13;5094086;28;20040;-67
2022/03/08 10:43:13;;;;;;;6.88;4.32;;;;;;;13.13;31.23;102010.66;5089347;28;20450;-67
2022/03/08 10:45:47;;;;;;;4.93;3.75;;;;;;;13.22;30.71;102011.94;5094768;28;20348;-68
2022/03/08 10:48:14;;;;;;;4.80;4.00;;;;;;;13.23;30.38;102010.97;5090232;28;20069;-67
2022/03/08 10:50:43;;;;;;;4.97;3.83;;;;;;;13.24;30.44;102010.00;5073938;28;20037;-68
2022/03/08 10:53:11;;;;;;;4.45;3.65;;;;;;;13.27;30.28;101999.88;5072648;28;20036;-68
2022/03/08 10:55:49;;;;;;;5.68;3.92;;;;;;;13.35;30.26;102007.47;5079883;28;20576;-68
2022/03/08 10:58:19;;;;;;;6.22;4.22;;;;;;;13.41;30.21;101996.31;5093645;28;20123;-68
2022/03/08 11:00:54;;;;;;;7.55;3.97;;;;;;;13.45;29.79;102005.09;5093570;28;20556;-67
2022/03/08 11:03:25;;;;;;;5.18;4.25;;;;;;;13.43;29.55;101998.91;5093966;28;20497;-67
2022/03/08 11:05:55;;;;;;;7.15;3.92;;;;;;;13.43;29.45;101996.22;5093201;28;20457;-67
2022/03/08 11:08:27;;;;;;;6.35;3.80;;;;;;;13.44;29.38;101997.97;5093875;28;20032;-67
2022/03/08 11:10:54;;;;;;;5.72;4.00;;;;;;;13.44;29.22;101998.81;5093922;28;20058;-67
2022/03/08 11:13:21;;;;;;;7.13;4.50;;;;;;;13.51;29.33;102004.69;5093513;28;20043;-67
2022/03/08 11:15:48;;;;;;;5.53;4.32;;;;;;;13.60;29.52;101987.88;5093263;28;20115;-67
2022/03/08 11:18:16;;;;;;;5.05;4.45;;;;;;;13.68;29.24;101978.31;5093058;28;20145;-67
2022/03/08 11:20:45;;;;;;;5.07;4.57;;;;;;;13.78;29.33;101983.09;5093621;28;20116;-67
2022/03/08 11:23:12;;;;;;;5.60;4.18;;;;;;;13.87;29.11;101972.56;5093572;28;20114;-67
2022/03/08 11:25:45;;;;;;;4.95;4.18;;;;;;;13.90;28.56;101974.19;5093605;28;20182;-67
2022/03/08 11:28:23;;;;;;;8.10;4.85;;;;;;;13.92;28.89;101970.41;5093613;28;20120;-67
2022/03/08 11:30:53;;;;;;;5.57;4.60;;;;;;;13.92;28.67;101965.00;5092520;28;20126;-67
2022/03/08 11:33:46;;;;;;;9.48;4.50;;;;;;;13.95;28.62;101983.72;5093558;28;20048;-67
2022/03/08 11:36:13;;;;;;;5.53;4.63;;;;;;;13.96;28.64;101968.38;5093282;28;20109;-68